Agua Doce do Norte, Brazil
Current Conditions -  °F | °C
As of 10:00 AM on Friday 31 Oct 2014 (Local Time) from SBIP Reporting Station
Broken Clouds Broken Clouds  
Wind Chill: 75°   Ceiling: 3000
Heat Index: 75°   Visibility: 6mi
Dew Point: 66°   Wind: 6mph
Humidity: 73%   Direction: 30°NNE
Pressure: 30.06"   Gusts: NA
Location:  18.55°S, 40.98°W
Report Text: SBIP 311200Z 03005KT 9999 BKN030 BKN050 24/19 Q1018
Loading
Personal Weather Stations






























Interactive Weather Map
Tropical Storm Tracking
New forecast layout! Learn more

10-Day Weather Forecast

Advertisements
Track Severe Weather on mobile